createdAt,value
2019-05-19T00:00:33.708Z,14.00
2019-05-19T00:03:01.671Z,14.01
2019-05-19T00:05:28.648Z,14.02
2019-05-19T00:07:55.750Z,14.02
2019-05-19T00:10:22.746Z,14.01
2019-05-19T00:12:49.943Z,14.00
2019-05-19T00:15:17.737Z,13.97
2019-05-19T00:17:44.722Z,13.93
2019-05-19T00:20:14.544Z,13.88
2019-05-19T00:22:41.618Z,13.84
2019-05-19T00:25:46.052Z,13.78
2019-05-19T00:28:13.037Z,13.76
2019-05-19T00:30:40.026Z,13.72
2019-05-19T00:33:09.866Z,13.68
2019-05-19T00:35:36.868Z,13.67
2019-05-19T00:38:03.798Z,13.65
2019-05-19T00:40:30.763Z,13.59
2019-05-19T00:42:57.757Z,13.57
2019-05-19T00:45:24.816Z,13.56
2019-05-19T00:47:51.742Z,13.55
2019-05-19T00:50:18.829Z,13.55
2019-05-19T00:52:45.772Z,13.53
2019-05-19T00:55:12.712Z,13.54
2019-05-19T00:58:01.272Z,13.52
2019-05-19T01:00:28.384Z,13.50
2019-05-19T01:02:55.466Z,13.49
2019-05-19T01:05:22.450Z,13.48
2019-05-19T01:07:49.420Z,13.45
2019-05-19T01:10:16.684Z,13.45
2019-05-19T01:12:45.715Z,13.43
2019-05-19T01:15:12.971Z,13.42
2019-05-19T01:17:39.930Z,13.43
2019-05-19T01:20:07.425Z,13.43
2019-05-19T01:22:34.370Z,13.43
2019-05-19T01:25:01.388Z,13.42
2019-05-19T01:27:28.421Z,13.42
2019-05-19T01:29:55.376Z,13.41
2019-05-19T01:32:22.346Z,13.44
2019-05-19T01:34:49.340Z,13.45
2019-05-19T01:37:23.765Z,13.49
2019-05-19T01:39:50.888Z,13.48
2019-05-19T01:42:19.018Z,13.48
2019-05-19T01:44:45.971Z,13.47
2019-05-19T01:47:12.913Z,13.47
2019-05-19T01:49:39.894Z,13.43
2019-05-19T01:52:56.054Z,13.41
2019-05-19T01:55:23.219Z,13.40
2019-05-19T01:57:50.181Z,13.38
2019-05-19T02:00:19.336Z,13.35
2019-05-19T02:02:46.365Z,13.34
2019-05-19T02:05:13.720Z,13.33
2019-05-19T02:07:46.737Z,13.31
2019-05-19T02:10:13.821Z,13.28
2019-05-19T02:12:40.977Z,13.26
2019-05-19T02:15:09.461Z,13.23
2019-05-19T02:17:36.493Z,13.20
2019-05-19T02:20:04.158Z,13.14
2019-05-19T02:22:31.153Z,13.09
2019-05-19T02:24:58.090Z,13.06
2019-05-19T02:27:27.055Z,13.03
2019-05-19T02:29:54.047Z,12.97
2019-05-19T02:32:20.991Z,12.96
2019-05-19T02:34:47.978Z,12.92
2019-05-19T02:37:14.952Z,12.88
2019-05-19T02:39:41.910Z,12.85
2019-05-19T02:42:09.961Z,12.82
2019-05-19T02:44:38.537Z,12.77
2019-05-19T02:47:05.975Z,12.76
2019-05-19T02:49:40.007Z,12.77
2019-05-19T02:52:09.043Z,12.82
2019-05-19T02:54:36.478Z,12.84
2019-05-19T02:57:03.972Z,12.82
2019-05-19T02:59:32.850Z,12.77
2019-05-19T03:02:01.811Z,12.72
2019-05-19T03:04:28.793Z,12.69
2019-05-19T03:06:55.729Z,12.64
2019-05-19T03:09:22.741Z,12.62
2019-05-19T03:11:49.740Z,12.59
2019-05-19T03:14:16.666Z,12.53
2019-05-19T03:16:43.613Z,12.50
2019-05-19T03:19:10.602Z,12.50
2019-05-19T03:21:37.550Z,12.45
2019-05-19T03:24:04.511Z,12.41
2019-05-19T03:26:34.327Z,12.38
2019-05-19T03:29:01.270Z,12.32
2019-05-19T03:31:44.344Z,12.32
2019-05-19T03:34:11.863Z,12.28
2019-05-19T03:36:38.815Z,12.28
2019-05-19T03:39:06.189Z,12.26
2019-05-19T03:41:33.137Z,12.29
2019-05-19T03:44:00.122Z,12.28
2019-05-19T03:46:27.110Z,12.23
2019-05-19T03:48:54.108Z,12.18
2019-05-19T03:51:31.177Z,12.12
2019-05-19T03:53:49.918Z,12.06
2019-05-19T03:56:16.880Z,12.01
2019-05-19T03:58:43.851Z,11.96
2019-05-19T04:01:10.789Z,11.94
2019-05-19T04:03:56.125Z,11.94
2019-05-19T04:06:23.079Z,11.93
2019-05-19T04:08:50.025Z,11.95
2019-05-19T04:11:17.100Z,11.98
2019-05-19T04:13:47.328Z,12.03
2019-05-19T04:16:14.281Z,12.05
2019-05-19T04:18:41.281Z,12.07
2019-05-19T04:21:08.248Z,12.10
2019-05-19T04:23:35.187Z,12.13
2019-05-19T04:26:02.263Z,12.16
2019-05-19T04:28:30.339Z,12.23
2019-05-19T04:30:57.285Z,12.29
2019-05-19T04:33:24.254Z,12.35
2019-05-19T04:35:51.222Z,12.41
2019-05-19T04:38:18.210Z,12.45
2019-05-19T04:40:45.152Z,12.51
2019-05-19T04:43:12.089Z,12.55
2019-05-19T04:45:39.068Z,12.58
2019-05-19T04:48:09.365Z,12.61
2019-05-19T04:50:34.971Z,12.63
2019-05-19T04:53:01.947Z,12.66
2019-05-19T04:55:28.868Z,12.69
2019-05-19T04:57:55.847Z,12.71
2019-05-19T05:00:22.775Z,12.75
2019-05-19T05:02:50.087Z,12.78
2019-05-19T05:05:17.344Z,12.85
2019-05-19T05:07:44.270Z,12.92
2019-05-19T05:10:11.449Z,12.99
2019-05-19T05:12:38.412Z,13.10
2019-05-19T05:15:05.636Z,13.21
2019-05-19T05:17:32.602Z,13.32
2019-05-19T05:19:59.535Z,13.40
2019-05-19T05:22:26.524Z,13.48
2019-05-19T05:24:53.487Z,13.59
2019-05-19T05:27:20.456Z,13.71
2019-05-19T05:29:55.128Z,13.79
2019-05-19T05:32:25.293Z,13.90
2019-05-19T05:34:52.238Z,14.05
2019-05-19T05:37:19.265Z,14.19
2019-05-19T05:39:46.338Z,14.28
2019-05-19T05:42:13.295Z,14.33
2019-05-19T05:44:40.263Z,14.36
2019-05-19T05:47:07.197Z,14.43
2019-05-19T05:49:34.145Z,14.43
2019-05-19T05:52:01.176Z,14.44
2019-05-19T05:54:28.239Z,14.47
2019-05-19T05:56:57.535Z,14.55
2019-05-19T05:59:24.525Z,14.58
2019-05-19T06:01:51.489Z,14.67
2019-05-19T06:04:18.413Z,14.67
2019-05-19T06:06:45.957Z,14.75
2019-05-19T06:09:12.962Z,14.83
2019-05-19T06:11:39.927Z,14.89
2019-05-19T06:14:06.943Z,14.94
2019-05-19T06:16:33.895Z,14.97
2019-05-19T06:19:00.844Z,14.98
2019-05-19T06:21:27.842Z,14.99
2019-05-19T06:23:54.806Z,15.03
2019-05-19T06:26:21.761Z,15.03
2019-05-19T06:28:48.760Z,15.02
2019-05-19T06:31:15.803Z,14.98
2019-05-19T06:33:42.810Z,14.97
2019-05-19T06:36:09.797Z,14.99
2019-05-19T06:38:36.737Z,15.01
2019-05-19T06:41:03.695Z,15.12
2019-05-19T06:43:30.729Z,15.16
2019-05-19T06:45:57.720Z,15.21
2019-05-19T06:48:24.656Z,15.27
2019-05-19T06:50:51.645Z,15.31
2019-05-19T06:53:18.577Z,15.45
2019-05-19T06:55:45.542Z,15.54
2019-05-19T06:58:12.554Z,15.60
2019-05-19T07:00:39.494Z,15.67
2019-05-19T07:03:06.449Z,15.72
2019-05-19T07:05:33.462Z,15.80
2019-05-19T07:08:08.486Z,15.89
2019-05-19T07:10:35.485Z,15.93
2019-05-19T07:13:02.507Z,15.96
2019-05-19T07:15:29.449Z,16.03
2019-05-19T07:17:56.388Z,16.06
2019-05-19T07:20:54.135Z,16.11
2019-05-19T07:23:28.217Z,16.18
2019-05-19T07:25:51.761Z,16.26
2019-05-19T07:28:19.010Z,16.35
2019-05-19T07:30:45.959Z,16.43
2019-05-19T07:33:13.132Z,16.52
2019-05-19T07:35:40.138Z,16.63
2019-05-19T07:38:07.572Z,16.69
2019-05-19T07:40:35.698Z,16.73
2019-05-19T07:43:02.683Z,16.79
2019-05-19T07:45:29.651Z,16.82
2019-05-19T07:47:56.648Z,16.85
2019-05-19T07:50:23.638Z,16.92
2019-05-19T07:52:50.597Z,17.04
2019-05-19T07:55:17.657Z,17.16
2019-05-19T07:57:44.682Z,17.26
2019-05-19T08:00:13.437Z,17.31
2019-05-19T08:02:40.399Z,17.33
2019-05-19T08:05:07.505Z,17.40
2019-05-19T08:07:34.578Z,17.44
2019-05-19T08:10:01.666Z,17.52
2019-05-19T08:12:28.767Z,17.60
2019-05-19T08:14:57.050Z,17.69
2019-05-19T08:17:26.015Z,17.80
2019-05-19T08:19:52.910Z,17.91
2019-05-19T08:22:19.969Z,18.02
2019-05-19T08:24:46.957Z,18.06
2019-05-19T08:27:13.963Z,18.17
2019-05-19T08:29:40.915Z,18.27
2019-05-19T08:32:07.959Z,18.39
2019-05-19T08:34:34.969Z,18.49
2019-05-19T08:37:02.001Z,18.50
2019-05-19T08:39:29.064Z,18.57
2019-05-19T08:41:56.146Z,18.64
2019-05-19T08:44:23.114Z,18.76
2019-05-19T08:46:50.054Z,18.81
2019-05-19T08:49:17.042Z,18.93
2019-05-19T08:51:44.010Z,19.02
2019-05-19T08:54:15.075Z,19.06
2019-05-19T08:56:39.889Z,19.10
2019-05-19T08:59:06.846Z,19.12
2019-05-19T09:01:33.785Z,19.18
2019-05-19T09:04:00.771Z,19.29
2019-05-19T09:06:27.730Z,19.42
2019-05-19T09:08:54.704Z,19.52
2019-05-19T09:11:21.685Z,19.56
2019-05-19T09:13:48.775Z,19.57
2019-05-19T09:16:15.758Z,19.66
2019-05-19T09:18:43.973Z,19.74
2019-05-19T09:21:10.922Z,19.82
2019-05-19T09:23:37.906Z,19.91
2019-05-19T09:26:04.908Z,19.96
2019-05-19T09:28:31.857Z,20.03
2019-05-19T09:30:58.837Z,20.08
2019-05-19T09:33:25.867Z,20.07
2019-05-19T09:35:52.819Z,20.13
2019-05-19T09:38:38.338Z,20.16
2019-05-19T09:41:07.110Z,20.27
2019-05-19T09:44:01.216Z,20.39
2019-05-19T09:46:28.221Z,20.55
2019-05-19T09:49:13.745Z,20.71
2019-05-19T09:51:40.712Z,20.80
2019-05-19T09:54:07.777Z,20.75
2019-05-19T09:56:34.833Z,20.84
2019-05-19T09:59:01.776Z,20.85
2019-05-19T10:01:28.726Z,20.83
2019-05-19T10:03:55.734Z,20.85
2019-05-19T10:06:22.716Z,20.96
2019-05-19T10:09:10.588Z,21.09
2019-05-19T10:12:04.035Z,21.18
2019-05-19T10:14:31.089Z,21.32
2019-05-19T10:16:59.894Z,21.35
2019-05-19T10:19:26.862Z,21.39
2019-05-19T10:21:53.854Z,21.42
2019-05-19T10:24:22.912Z,21.46
2019-05-19T10:26:50.045Z,21.60
2019-05-19T10:29:17.068Z,21.58
2019-05-19T10:31:49.401Z,21.66
2019-05-19T10:34:16.492Z,21.72
2019-05-19T10:36:43.473Z,21.73
2019-05-19T10:39:10.680Z,21.88
2019-05-19T10:41:37.649Z,22.01
2019-05-19T10:44:06.746Z,22.04
2019-05-19T10:46:33.721Z,22.06
2019-05-19T10:49:00.716Z,22.23
2019-05-19T10:51:27.741Z,22.37
2019-05-19T10:53:54.712Z,22.59
2019-05-19T10:56:21.667Z,22.89
2019-05-19T10:58:48.926Z,23.18
2019-05-19T11:01:16.103Z,23.24
2019-05-19T11:03:43.060Z,23.25
2019-05-19T11:06:10.181Z,22.94
2019-05-19T11:08:37.313Z,22.71
2019-05-19T11:11:04.326Z,22.57
2019-05-19T11:13:31.329Z,22.37
2019-05-19T11:15:58.563Z,22.35
2019-05-19T11:18:25.581Z,22.58
2019-05-19T11:20:52.543Z,22.92
2019-05-19T11:23:19.552Z,23.07
2019-05-19T11:25:51.514Z,23.14
2019-05-19T11:28:15.421Z,23.34
2019-05-19T11:30:42.366Z,23.61
2019-05-19T11:33:09.329Z,23.86
2019-05-19T11:35:36.350Z,24.27
2019-05-19T11:38:03.310Z,24.70
2019-05-19T11:40:30.269Z,24.99
2019-05-19T11:42:57.294Z,25.32
2019-05-19T11:45:24.223Z,25.64
2019-05-19T11:47:51.256Z,25.88
2019-05-19T11:50:18.264Z,25.94
2019-05-19T11:52:45.267Z,25.92
2019-05-19T11:55:12.455Z,25.98
2019-05-19T11:57:39.396Z,26.04
2019-05-19T12:00:07.490Z,26.34
2019-05-19T12:02:34.488Z,26.78
2019-05-19T12:05:01.536Z,27.23
2019-05-19T12:07:29.666Z,27.33
2019-05-19T12:09:58.747Z,27.13
2019-05-19T12:12:25.726Z,27.02
2019-05-19T12:14:52.729Z,27.20
2019-05-19T12:17:21.278Z,27.54
2019-05-19T12:19:48.214Z,27.24
2019-05-19T12:22:15.298Z,27.39
2019-05-19T12:24:44.050Z,27.87
2019-05-19T12:27:12.348Z,28.02
2019-05-19T12:29:39.349Z,28.33
2019-05-19T12:32:06.317Z,28.77
2019-05-19T12:34:33.297Z,29.06
2019-05-19T12:37:00.328Z,28.18
2019-05-19T12:39:27.266Z,27.14
2019-05-19T12:41:54.223Z,26.47
2019-05-19T12:44:21.332Z,26.03
2019-05-19T12:46:48.314Z,25.75
2019-05-19T12:49:15.265Z,26.23
2019-05-19T12:51:42.204Z,26.95
2019-05-19T12:54:09.207Z,27.21
2019-05-19T12:56:39.686Z,27.49
2019-05-19T12:59:05.069Z,27.12
2019-05-19T13:01:32.080Z,26.54
2019-05-19T13:03:59.036Z,26.06
2019-05-19T13:06:26.061Z,25.71
2019-05-19T13:08:53.042Z,25.42
2019-05-19T13:11:19.987Z,25.19
2019-05-19T13:13:46.975Z,25.02
2019-05-19T13:16:14.002Z,25.01
2019-05-19T13:18:41.194Z,24.97
2019-05-19T13:21:08.127Z,25.61
2019-05-19T13:23:35.132Z,26.26
2019-05-19T13:26:03.820Z,26.94
2019-05-19T13:28:30.817Z,27.15
2019-05-19T13:30:57.787Z,27.20
2019-05-19T13:33:24.788Z,27.21
2019-05-19T13:35:51.830Z,26.69
2019-05-19T13:38:20.496Z,26.40
2019-05-19T13:40:47.481Z,26.99
2019-05-19T13:43:14.424Z,27.68
2019-05-19T13:45:41.409Z,28.12
2019-05-19T13:48:08.384Z,28.39
2019-05-19T13:50:35.317Z,28.42
2019-05-19T13:53:02.277Z,28.27
2019-05-19T13:55:29.301Z,28.40
2019-05-19T13:57:56.249Z,28.66
2019-05-19T14:00:23.212Z,28.57
2019-05-19T14:02:50.209Z,28.50
2019-05-19T14:05:17.146Z,28.95
2019-05-19T14:07:44.101Z,29.39
2019-05-19T14:10:12.183Z,29.42
2019-05-19T14:12:39.134Z,29.61
2019-05-19T14:15:06.844Z,29.57
2019-05-19T14:17:33.955Z,29.58
2019-05-19T14:20:02.200Z,28.90
2019-05-19T14:22:29.660Z,28.27
2019-05-19T14:24:56.665Z,28.07
2019-05-19T14:27:30.242Z,28.57
2019-05-19T14:29:52.502Z,28.65
2019-05-19T14:32:19.497Z,28.79
2019-05-19T14:34:46.460Z,28.09
2019-05-19T14:37:13.401Z,27.40
2019-05-19T14:39:40.394Z,27.47
2019-05-19T14:42:11.445Z,27.49
2019-05-19T14:44:38.414Z,27.39
2019-05-19T14:47:05.436Z,27.32
2019-05-19T14:49:32.372Z,27.34
2019-05-19T14:51:59.304Z,27.15
2019-05-19T14:54:26.425Z,26.54
2019-05-19T14:56:53.386Z,25.91
2019-05-19T14:59:20.348Z,25.47
2019-05-19T15:01:47.362Z,25.33
2019-05-19T15:04:14.346Z,25.82
2019-05-19T15:06:41.463Z,26.10
2019-05-19T15:09:08.528Z,26.48
2019-05-19T15:11:35.504Z,26.42
2019-05-19T15:14:05.529Z,26.19
2019-05-19T15:16:33.637Z,26.24
2019-05-19T15:19:00.609Z,26.13
2019-05-19T15:21:27.630Z,26.22
2019-05-19T15:23:54.576Z,26.00
2019-05-19T15:26:21.529Z,25.90
2019-05-19T15:28:48.633Z,25.98
2019-05-19T15:31:15.587Z,25.88
2019-05-19T15:33:42.613Z,25.60
2019-05-19T15:36:10.076Z,25.30
2019-05-19T15:38:40.091Z,25.57
2019-05-19T15:41:07.039Z,25.48
2019-05-19T15:43:34.023Z,25.29
2019-05-19T15:46:00.989Z,24.85
2019-05-19T15:48:28.248Z,24.27
2019-05-19T15:50:55.216Z,23.74
2019-05-19T15:53:23.261Z,23.30
2019-05-19T15:55:50.255Z,22.92
2019-05-19T15:58:17.409Z,22.48
2019-05-19T16:00:44.379Z,22.10
2019-05-19T16:03:11.386Z,21.87
2019-05-19T16:05:38.337Z,21.58
2019-05-19T16:08:05.286Z,21.22
2019-05-19T16:10:32.299Z,20.96
2019-05-19T16:12:59.291Z,20.60
2019-05-19T16:15:26.301Z,20.18
2019-05-19T16:17:53.429Z,19.61
2019-05-19T16:20:20.369Z,19.24
2019-05-19T16:22:47.315Z,18.82
2019-05-19T16:25:14.708Z,18.55
2019-05-19T16:27:41.718Z,18.39
2019-05-19T16:30:09.485Z,18.08
2019-05-19T16:32:36.617Z,17.87
2019-05-19T16:35:03.883Z,17.64
2019-05-19T16:37:30.872Z,17.49
2019-05-19T16:39:57.892Z,17.43
2019-05-19T16:42:24.856Z,17.33
2019-05-19T16:44:51.864Z,17.25
2019-05-19T16:47:18.848Z,17.21
2019-05-19T16:49:48.520Z,17.19
2019-05-19T16:52:15.525Z,17.18
2019-05-19T16:54:45.405Z,17.15
2019-05-19T16:57:12.397Z,17.08
2019-05-19T16:59:39.522Z,17.06
2019-05-19T17:02:06.542Z,17.01
2019-05-19T17:04:33.537Z,16.98
2019-05-19T17:07:03.142Z,16.84
2019-05-19T17:09:30.441Z,16.72
2019-05-19T17:11:57.381Z,16.67
2019-05-19T17:14:24.365Z,16.60
2019-05-19T17:16:51.458Z,16.57
2019-05-19T17:19:18.464Z,16.49
2019-05-19T17:21:45.445Z,16.39
2019-05-19T17:24:12.470Z,16.42
2019-05-19T17:26:39.613Z,16.33
2019-05-19T17:29:06.542Z,16.32
2019-05-19T17:31:33.563Z,16.32
2019-05-19T17:34:00.548Z,16.26
2019-05-19T17:36:27.655Z,16.18
2019-05-19T17:38:54.696Z,16.19
2019-05-19T17:41:21.710Z,16.13
2019-05-19T17:43:48.682Z,16.15
2019-05-19T17:46:15.724Z,16.16
2019-05-19T17:48:42.665Z,16.11
2019-05-19T17:51:09.626Z,16.14
2019-05-19T17:53:36.648Z,16.11
2019-05-19T17:56:03.593Z,16.09
2019-05-19T17:58:32.975Z,16.11
2019-05-19T18:01:00.005Z,16.06
2019-05-19T18:03:27.583Z,16.06
2019-05-19T18:05:54.680Z,16.05
2019-05-19T18:08:21.638Z,16.13
2019-05-19T18:10:48.605Z,16.18
2019-05-19T18:13:16.020Z,16.25
2019-05-19T18:15:45.488Z,16.29
2019-05-19T18:18:12.675Z,16.30
2019-05-19T18:20:39.667Z,16.27
2019-05-19T18:23:06.794Z,16.30
2019-05-19T18:25:34.919Z,16.28
2019-05-19T18:28:01.994Z,16.32
2019-05-19T18:30:28.971Z,16.32
2019-05-19T18:32:55.962Z,16.31
2019-05-19T18:35:23.003Z,16.23
2019-05-19T18:37:50.077Z,16.23
2019-05-19T18:40:17.263Z,16.18
2019-05-19T18:42:44.244Z,16.12
2019-05-19T18:45:11.620Z,16.10
2019-05-19T18:47:38.603Z,16.08
2019-05-19T18:50:06.065Z,16.05
2019-05-19T18:52:33.150Z,16.05
2019-05-19T18:55:00.134Z,15.94
2019-05-19T18:57:28.244Z,15.91
2019-05-19T18:59:55.252Z,15.93
2019-05-19T19:02:22.309Z,15.87
2019-05-19T19:04:49.307Z,15.91
2019-05-19T19:07:16.253Z,15.85
2019-05-19T19:09:45.653Z,15.88
2019-05-19T19:12:12.597Z,15.84
2019-05-19T19:14:39.613Z,15.82
2019-05-19T19:17:06.618Z,15.82
2019-05-19T19:19:33.577Z,15.79
2019-05-19T19:22:00.632Z,15.77
2019-05-19T19:24:27.607Z,15.79
2019-05-19T19:26:54.561Z,15.82
2019-05-19T19:29:21.615Z,15.82
2019-05-19T19:31:49.051Z,15.80
2019-05-19T19:34:16.161Z,15.84
2019-05-19T19:36:43.197Z,15.79
2019-05-19T19:39:11.307Z,15.80
2019-05-19T19:41:38.294Z,15.79
2019-05-19T19:44:05.384Z,15.77
2019-05-19T19:46:32.333Z,15.76
2019-05-19T19:48:59.316Z,15.72
2019-05-19T19:51:26.297Z,15.70
2019-05-19T19:53:54.383Z,15.67
2019-05-19T19:56:21.372Z,15.68
2019-05-19T19:58:48.517Z,15.62
2019-05-19T20:01:16.192Z,15.59
2019-05-19T20:03:43.190Z,15.55
2019-05-19T20:06:10.341Z,15.47
2019-05-19T20:08:37.312Z,15.39
2019-05-19T20:11:05.848Z,15.36
2019-05-19T20:13:34.687Z,15.33
2019-05-19T20:16:01.756Z,15.29
2019-05-19T20:18:28.867Z,15.26
2019-05-19T20:20:55.893Z,15.24
2019-05-19T20:23:22.905Z,15.21
2019-05-19T20:25:49.969Z,15.17
2019-05-19T20:28:17.050Z,15.14
2019-05-19T20:30:45.498Z,15.11
2019-05-19T20:33:12.580Z,15.04
2019-05-19T20:36:16.419Z,15.00
2019-05-19T20:38:43.414Z,14.99
2019-05-19T20:41:10.406Z,14.93
2019-05-19T20:43:40.253Z,14.91
2019-05-19T20:46:07.347Z,14.88
2019-05-19T20:48:34.357Z,14.83
2019-05-19T20:51:01.879Z,14.79
2019-05-19T20:53:28.832Z,14.76
2019-05-19T20:55:55.838Z,14.70
2019-05-19T20:58:22.857Z,14.66
2019-05-19T21:00:51.918Z,14.61
2019-05-19T21:03:19.167Z,14.59
2019-05-19T21:06:05.142Z,14.54
2019-05-19T21:08:33.565Z,14.46
2019-05-19T21:11:00.924Z,14.37
2019-05-19T21:13:29.146Z,14.30
2019-05-19T21:15:56.273Z,14.22
2019-05-19T21:18:23.380Z,14.18
2019-05-19T21:20:50.437Z,14.12
2019-05-19T21:23:17.423Z,14.06
2019-05-19T21:25:44.442Z,13.91
2019-05-19T21:28:11.484Z,13.75
2019-05-19T21:30:38.449Z,13.64
2019-05-19T21:33:05.429Z,13.58
2019-05-19T21:35:33.231Z,13.51
2019-05-19T21:38:00.220Z,13.45
2019-05-19T21:40:27.211Z,13.36
2019-05-19T21:42:54.206Z,13.26
2019-05-19T21:45:21.157Z,13.15
2019-05-19T21:47:48.152Z,13.10
2019-05-19T21:50:15.124Z,13.05
2019-05-19T21:52:42.099Z,12.95
2019-05-19T21:55:09.226Z,12.85
2019-05-19T21:57:36.178Z,12.76
2019-05-19T22:00:05.398Z,12.71
2019-05-19T22:02:32.401Z,12.66
2019-05-19T22:05:01.505Z,12.64
2019-05-19T22:07:51.292Z,12.60
2019-05-19T22:10:20.067Z,12.56
2019-05-19T22:12:47.039Z,12.46
2019-05-19T22:15:14.076Z,12.34
2019-05-19T22:17:41.102Z,12.23
2019-05-19T22:20:08.384Z,12.14
2019-05-19T22:22:35.384Z,12.02
2019-05-19T22:25:02.586Z,11.97
2019-05-19T22:27:29.570Z,12.01
2019-05-19T22:29:56.588Z,12.01
2019-05-19T22:32:23.542Z,11.99
2019-05-19T22:34:50.509Z,11.94
2019-05-19T22:37:17.526Z,11.99
2019-05-19T22:39:44.467Z,11.99
2019-05-19T22:42:11.428Z,11.97
2019-05-19T22:44:38.425Z,11.93
2019-05-19T22:47:05.387Z,11.91
2019-05-19T22:49:34.177Z,11.95
2019-05-19T22:52:01.189Z,11.97
2019-05-19T22:54:28.137Z,12.00
2019-05-19T22:56:55.130Z,11.99
2019-05-19T22:59:22.118Z,11.95
2019-05-19T23:01:51.834Z,11.91
2019-05-19T23:04:19.840Z,11.82
2019-05-19T23:06:46.789Z,11.80
2019-05-19T23:09:13.773Z,11.75
2019-05-19T23:11:40.849Z,11.78
2019-05-19T23:14:07.959Z,11.90
2019-05-19T23:16:34.983Z,11.90
2019-05-19T23:19:01.996Z,11.86
2019-05-19T23:21:35.242Z,11.81
2019-05-19T23:24:51.143Z,11.88
2019-05-19T23:27:18.102Z,12.17
2019-05-19T23:29:45.050Z,12.58
2019-05-19T23:32:12.082Z,12.75
2019-05-19T23:34:39.042Z,12.90
2019-05-19T23:37:06.004Z,12.99
2019-05-19T23:39:34.124Z,13.08
2019-05-19T23:42:01.092Z,13.14
2019-05-19T23:44:28.046Z,13.19
2019-05-19T23:46:55.045Z,13.22
2019-05-19T23:49:23.115Z,13.27
2019-05-19T23:51:50.164Z,13.31
2019-05-19T23:54:24.861Z,13.37
2019-05-19T23:56:51.810Z,13.37
2019-05-19T23:59:18.777Z,13.39
